Time;durP1;ratioP1;P1;durP2;ratioP2;P2;SDS_P1;SDS_P2;PMS_P1;PMS_P2;Temp;Humidity;BMP_temperature;BMP_pressure;BME280_temperature;BME280_humidity;BME280_pressure;Samples;Min_cycle;Max_cycle;Signal;HPM_P1;HPM_P2
2023/06/28 00:01:14;;;;;;;5.18;3.00;;;17.30;99.90;;;;;;5094822;28;20102;-63
2023/06/28 00:03:43;;;;;;;5.80;2.97;;;17.20;99.90;;;;;;5077324;28;20052;-63
2023/06/28 00:06:09;;;;;;;6.63;3.55;;;17.20;99.90;;;;;;5094519;28;20048;-63
2023/06/28 00:08:35;;;;;;;6.55;2.90;;;17.20;99.90;;;;;;5094343;28;20048;-63
2023/06/28 00:11:02;;;;;;;7.00;2.90;;;17.20;99.90;;;;;;5094347;28;20056;-64
2023/06/28 00:13:29;;;;;;;5.13;2.80;;;17.20;99.90;;;;;;5093553;28;20055;-63
2023/06/28 00:15:55;;;;;;;6.57;3.00;;;17.20;99.90;;;;;;5094006;28;20059;-63
2023/06/28 00:18:21;;;;;;;7.05;3.15;;;17.20;99.90;;;;;;5094018;28;20067;-64
2023/06/28 00:20:47;;;;;;;6.30;2.83;;;17.20;99.90;;;;;;5075877;28;20109;-64
2023/06/28 00:23:14;;;;;;;7.60;3.20;;;17.20;99.90;;;;;;5094679;28;20113;-63
2023/06/28 00:25:41;;;;;;;6.55;3.15;;;17.10;99.90;;;;;;5076133;28;20377;-63
2023/06/28 00:28:07;;;;;;;6.65;3.13;;;17.10;99.90;;;;;;5075866;28;20048;-63
2023/06/28 00:30:34;;;;;;;6.05;2.40;;;17.10;99.90;;;;;;5075885;28;20379;-64
2023/06/28 00:33:00;;;;;;;4.07;2.65;;;17.10;99.90;;;;;;5093266;28;20357;-63
2023/06/28 00:35:26;;;;;;;8.15;2.90;;;17.10;99.90;;;;;;5093688;28;20463;-63
2023/06/28 00:37:54;;;;;;;5.28;2.80;;;17.10;99.90;;;;;;5093991;28;20056;-63
2023/06/28 00:40:21;;;;;;;9.27;2.30;;;17.20;99.90;;;;;;5093498;28;20052;-63
2023/06/28 00:42:47;;;;;;;5.63;2.55;;;17.20;99.90;;;;;;5093357;28;20066;-63
2023/06/28 00:45:14;;;;;;;5.53;2.72;;;17.20;99.90;;;;;;5093668;28;20410;-63
2023/06/28 00:47:42;;;;;;;7.93;2.90;;;17.20;99.90;;;;;;5093827;28;20071;-64
2023/06/28 00:50:09;;;;;;;5.88;2.60;;;17.10;99.90;;;;;;5093420;28;20056;-63
2023/06/28 00:52:36;;;;;;;5.50;2.90;;;17.00;99.90;;;;;;5092771;28;20394;-64
2023/06/28 00:55:03;;;;;;;5.32;3.25;;;16.90;99.90;;;;;;5093385;28;20379;-63
2023/06/28 00:57:30;;;;;;;6.47;3.15;;;16.90;99.90;;;;;;5093216;28;20052;-63
2023/06/28 00:59:58;;;;;;;7.90;2.97;;;16.80;99.90;;;;;;5093292;28;20055;-63
2023/06/28 01:02:25;;;;;;;6.18;3.03;;;16.80;99.90;;;;;;5093668;28;20100;-63
2023/06/28 01:04:57;;;;;;;5.45;3.05;;;16.70;99.90;;;;;;5075944;28;20058;-63
2023/06/28 01:07:27;;;;;;;4.80;2.95;;;16.70;99.90;;;;;;5093587;28;20059;-63
2023/06/28 01:09:57;;;;;;;5.03;3.25;;;16.70;99.90;;;;;;5075227;28;20052;-63
2023/06/28 01:12:25;;;;;;;6.82;2.90;;;16.70;99.90;;;;;;5093007;28;20047;-63
2023/06/28 01:14:51;;;;;;;4.60;2.80;;;16.70;99.90;;;;;;5093355;28;20090;-63
2023/06/28 01:17:19;;;;;;;4.50;2.97;;;16.70;99.90;;;;;;5075128;28;20047;-63
2023/06/28 01:19:46;;;;;;;4.97;3.08;;;16.70;99.90;;;;;;5092169;28;20086;-63
2023/06/28 01:22:13;;;;;;;7.15;3.10;;;16.70;99.90;;;;;;5093292;28;20048;-64
2023/06/28 01:24:40;;;;;;;6.13;2.67;;;16.70;99.90;;;;;;5093196;28;20383;-63
2023/06/28 01:27:09;;;;;;;4.53;2.80;;;16.70;99.90;;;;;;5093044;28;20109;-63
2023/06/28 01:29:36;;;;;;;3.88;2.65;;;16.70;99.90;;;;;;5092799;28;20101;-63
2023/06/28 01:32:05;;;;;;;5.90;2.80;;;16.70;99.90;;;;;;5075093;28;20113;-63
2023/06/28 01:34:31;;;;;;;8.27;3.10;;;16.70;99.90;;;;;;5092401;28;20052;-64
2023/06/28 01:37:01;;;;;;;5.57;3.15;;;16.70;99.90;;;;;;5092667;28;20052;-63
2023/06/28 01:39:29;;;;;;;7.60;2.72;;;16.70;99.90;;;;;;5092098;28;20365;-64
2023/06/28 01:41:59;;;;;;;5.03;3.03;;;16.60;99.90;;;;;;5075070;28;20056;-64
2023/06/28 01:44:26;;;;;;;5.07;3.33;;;16.70;99.90;;;;;;5075235;28;20056;-64
2023/06/28 01:46:54;;;;;;;5.95;2.90;;;16.60;99.90;;;;;;5092987;28;20052;-63
2023/06/28 01:49:20;;;;;;;5.78;3.42;;;16.60;99.90;;;;;;5092738;28;20301;-63
2023/06/28 01:51:47;;;;;;;4.85;3.17;;;16.60;99.90;;;;;;5092096;28;20056;-64
2023/06/28 01:54:16;;;;;;;7.28;3.45;;;16.50;99.90;;;;;;5074925;28;20456;-63
2023/06/28 01:56:43;;;;;;;5.30;3.35;;;16.50;99.90;;;;;;5092919;28;20512;-63
2023/06/28 01:59:09;;;;;;;7.53;3.58;;;16.60;99.90;;;;;;5092627;28;20490;-62
2023/06/28 02:01:35;;;;;;;7.47;3.75;;;16.60;99.90;;;;;;5074407;28;20048;-64
2023/06/28 02:04:02;;;;;;;7.18;4.55;;;16.60;99.90;;;;;;5092729;28;20111;-64
2023/06/28 02:06:28;;;;;;;6.88;3.80;;;16.50;99.90;;;;;;5074693;28;20048;-63
2023/06/28 02:08:55;;;;;;;11.30;4.78;;;16.60;99.90;;;;;;5092183;28;20043;-63
2023/06/28 02:11:21;;;;;;;4.78;3.70;;;16.60;99.90;;;;;;5092603;28;20791;-63
2023/06/28 02:13:47;;;;;;;5.88;3.83;;;16.60;99.90;;;;;;5092152;28;20146;-63
2023/06/28 02:16:14;;;;;;;8.95;3.92;;;16.70;99.90;;;;;;5092443;28;20052;-64
2023/06/28 02:18:41;;;;;;;5.63;4.10;;;16.70;99.90;;;;;;5092223;28;20048;-64
2023/06/28 02:21:07;;;;;;;5.95;4.32;;;16.60;99.90;;;;;;5074650;28;20121;-63
2023/06/28 02:23:33;;;;;;;7.40;4.50;;;16.60;99.90;;;;;;5094031;28;20044;-63
2023/06/28 02:26:00;;;;;;;7.80;4.28;;;16.70;99.90;;;;;;5096455;28;20048;-63
2023/06/28 02:28:27;;;;;;;6.28;4.68;;;16.70;99.90;;;;;;5095788;28;20094;-64
2023/06/28 02:30:53;;;;;;;7.85;4.40;;;16.60;99.90;;;;;;5096236;28;20082;-64
2023/06/28 02:33:21;;;;;;;9.10;4.47;;;16.60;99.90;;;;;;5089205;28;20048;-63
2023/06/28 02:35:47;;;;;;;8.20;4.55;;;16.60;99.90;;;;;;5076007;28;20045;-64
2023/06/28 02:38:13;;;;;;;5.45;4.25;;;16.50;99.90;;;;;;5075014;28;20052;-63
2023/06/28 02:40:39;;;;;;;7.05;4.90;;;16.60;99.90;;;;;;5075469;28;20106;-63
2023/06/28 02:43:06;;;;;;;8.93;5.38;;;16.50;99.90;;;;;;5075209;28;20052;-63
2023/06/28 02:45:34;;;;;;;8.70;4.75;;;16.50;99.90;;;;;;5075137;28;20049;-63
2023/06/28 02:48:00;;;;;;;7.22;4.22;;;16.50;99.90;;;;;;5074853;28;20353;-63
2023/06/28 02:50:27;;;;;;;9.20;5.20;;;16.50;99.90;;;;;;5074908;28;20109;-64
2023/06/28 02:52:54;;;;;;;5.53;4.15;;;16.50;99.90;;;;;;5069280;28;20045;-64
2023/06/28 02:55:23;;;;;;;7.95;4.88;;;16.50;99.90;;;;;;5074999;28;20051;-64
2023/06/28 02:57:51;;;;;;;6.03;4.28;;;16.50;99.90;;;;;;5074888;28;20114;-64
2023/06/28 03:00:17;;;;;;;7.45;4.75;;;16.40;99.90;;;;;;5057613;28;20060;-63
2023/06/28 03:02:43;;;;;;;7.47;4.95;;;16.50;99.90;;;;;;5074716;28;20131;-64
2023/06/28 03:05:10;;;;;;;6.63;4.90;;;16.40;99.90;;;;;;5075463;28;20677;-63
2023/06/28 03:07:36;;;;;;;7.70;5.45;;;16.30;99.90;;;;;;5075766;28;20457;-62
2023/06/28 03:10:03;;;;;;;7.03;4.50;;;16.30;99.90;;;;;;5075285;28;20060;-63
2023/06/28 03:12:29;;;;;;;6.50;5.30;;;16.20;99.90;;;;;;5074679;28;20496;-63
2023/06/28 03:14:56;;;;;;;8.32;4.97;;;16.40;99.90;;;;;;5057849;28;20052;-63
2023/06/28 03:17:22;;;;;;;9.32;4.90;;;16.30;99.90;;;;;;5057319;28;20472;-62
2023/06/28 03:19:49;;;;;;;7.03;5.07;;;16.30;99.90;;;;;;5074577;28;20052;-63
2023/06/28 03:22:16;;;;;;;7.28;5.25;;;16.30;99.90;;;;;;5076227;28;20111;-63
2023/06/28 03:24:42;;;;;;;7.65;4.97;;;16.20;99.90;;;;;;5075170;28;20052;-63
2023/06/28 03:27:10;;;;;;;9.18;5.05;;;16.20;99.90;;;;;;5057667;28;20045;-62
2023/06/28 03:29:36;;;;;;;9.32;4.75;;;16.20;99.90;;;;;;5075252;28;20106;-62
2023/06/28 03:32:02;;;;;;;8.50;5.13;;;16.20;99.90;;;;;;5074634;28;20044;-63
2023/06/28 03:34:31;;;;;;;7.78;5.20;;;16.10;99.90;;;;;;5089201;28;20059;-63
2023/06/28 03:36:57;;;;;;;7.93;4.45;;;16.10;99.90;;;;;;5094562;28;20055;-63
2023/06/28 03:39:25;;;;;;;5.55;4.15;;;16.10;99.90;;;;;;5094499;28;20064;-63
2023/06/28 03:41:52;;;;;;;8.63;4.22;;;16.10;99.90;;;;;;5076571;28;20056;-63
2023/06/28 03:44:18;;;;;;;5.22;4.00;;;16.00;99.90;;;;;;5094540;28;20059;-63
2023/06/28 03:46:45;;;;;;;6.60;4.20;;;16.10;99.90;;;;;;5094899;28;20040;-63
2023/06/28 03:49:13;;;;;;;6.47;3.67;;;16.00;99.90;;;;;;5094842;28;20044;-64
2023/06/28 03:51:40;;;;;;;5.05;3.92;;;16.00;99.90;;;;;;5096217;28;20044;-63
2023/06/28 03:54:06;;;;;;;5.63;3.60;;;15.90;99.90;;;;;;5094239;28;20126;-63
2023/06/28 03:56:33;;;;;;;5.13;3.90;;;15.90;99.90;;;;;;5093931;28;20079;-63
2023/06/28 03:58:59;;;;;;;5.20;3.35;;;15.90;99.90;;;;;;5093670;28;20052;-64
2023/06/28 04:01:25;;;;;;;4.93;3.45;;;15.90;99.90;;;;;;5093896;28;20105;-64
2023/06/28 04:03:51;;;;;;;6.68;3.58;;;15.90;99.90;;;;;;5093897;28;20043;-63
2023/06/28 04:06:19;;;;;;;5.85;3.42;;;15.90;99.90;;;;;;5077163;28;20040;-63
2023/06/28 04:08:46;;;;;;;6.03;3.75;;;15.90;99.90;;;;;;5093319;28;20044;-64
2023/06/28 04:11:14;;;;;;;5.75;3.00;;;15.90;99.90;;;;;;5093678;28;20105;-63
2023/06/28 04:13:41;;;;;;;7.65;3.70;;;15.90;99.90;;;;;;5093464;28;20051;-64
2023/06/28 04:16:07;;;;;;;6.05;3.63;;;15.90;99.90;;;;;;5093656;28;20121;-64
2023/06/28 04:18:33;;;;;;;5.70;3.47;;;15.90;99.90;;;;;;5093360;28;20048;-63
2023/06/28 04:20:59;;;;;;;4.63;3.40;;;15.90;99.90;;;;;;5093272;28;20044;-63
2023/06/28 04:23:25;;;;;;;5.18;3.50;;;15.90;99.90;;;;;;5093437;28;20051;-63
2023/06/28 04:25:53;;;;;;;5.22;3.55;;;15.90;99.90;;;;;;5093848;28;20052;-63
2023/06/28 04:28:19;;;;;;;4.90;3.60;;;15.90;99.90;;;;;;5093090;28;20051;-63
2023/06/28 04:30:46;;;;;;;7.90;3.60;;;15.80;99.90;;;;;;5093391;28;20044;-63
2023/06/28 04:33:18;;;;;;;5.50;3.38;;;15.80;99.90;;;;;;5092998;28;20044;-63
2023/06/28 04:35:47;;;;;;;6.53;3.88;;;15.80;99.90;;;;;;5093526;28;20044;-64
2023/06/28 04:38:14;;;;;;;5.13;3.40;;;15.80;99.90;;;;;;5093021;28;20052;-64
2023/06/28 04:40:40;;;;;;;6.93;4.20;;;15.90;99.90;;;;;;5093307;28;20048;-63
2023/06/28 04:43:10;;;;;;;4.97;3.40;;;15.90;99.90;;;;;;5075578;28;20372;-63
2023/06/28 04:45:37;;;;;;;5.18;3.47;;;15.90;99.90;;;;;;5074645;28;20048;-64
2023/06/28 04:48:05;;;;;;;5.35;3.88;;;15.90;99.90;;;;;;5093114;28;20044;-64
2023/06/28 04:50:36;;;;;;;5.47;4.03;;;15.90;99.90;;;;;;5093753;28;20055;-63
2023/06/28 04:53:03;;;;;;;5.88;3.92;;;15.90;99.90;;;;;;5075329;28;20468;-62
2023/06/28 04:55:32;;;;;;;6.10;3.67;;;15.90;99.90;;;;;;5075892;28;20044;-63
2023/06/28 04:58:06;;;;;;;5.68;3.92;;;15.90;99.90;;;;;;5058790;28;20044;-64
2023/06/28 05:00:33;;;;;;;5.30;4.03;;;15.90;99.90;;;;;;5093571;28;20056;-63
2023/06/28 05:03:05;;;;;;;8.20;4.00;;;15.90;99.90;;;;;;5093023;28;20044;-64
2023/06/28 05:05:31;;;;;;;6.63;4.20;;;15.90;99.90;;;;;;5091232;28;20056;-63
2023/06/28 05:07:59;;;;;;;7.45;4.70;;;15.90;99.90;;;;;;5083438;28;20131;-64
2023/06/28 05:10:27;;;;;;;7.72;4.63;;;15.90;99.90;;;;;;5076236;28;20055;-63
2023/06/28 05:12:53;;;;;;;12.18;4.80;;;15.90;99.90;;;;;;5063076;28;20049;-64
2023/06/28 05:15:19;;;;;;;9.25;5.43;;;15.80;99.90;;;;;;5043964;28;20059;-63
2023/06/28 05:17:48;;;;;;;8.95;5.00;;;15.90;99.90;;;;;;5066289;28;20068;-65
2023/06/28 05:20:14;;;;;;;7.88;4.80;;;15.90;99.90;;;;;;5090659;28;20052;-63
2023/06/28 05:22:50;;;;;;;8.10;4.60;;;15.90;99.90;;;;;;5063413;28;20048;-63
2023/06/28 05:25:17;;;;;;;8.88;5.40;;;15.80;99.90;;;;;;5092579;28;20051;-63
2023/06/28 05:27:43;;;;;;;8.65;5.30;;;15.70;99.90;;;;;;5092096;28;20044;-63
2023/06/28 05:30:11;;;;;;;8.45;5.30;;;15.70;99.90;;;;;;5092522;28;20052;-63
2023/06/28 05:32:39;;;;;;;9.85;5.97;;;15.80;99.90;;;;;;5084851;28;20040;-63
2023/06/28 05:35:06;;;;;;;9.13;5.40;;;15.80;99.90;;;;;;5072755;28;20051;-64
2023/06/28 05:37:32;;;;;;;8.80;5.20;;;15.80;99.90;;;;;;5072327;28;20071;-63
2023/06/28 05:40:01;;;;;;;10.70;5.60;;;15.60;99.90;;;;;;5072039;28;20044;-64
2023/06/28 05:42:27;;;;;;;9.75;5.32;;;15.60;99.90;;;;;;5054586;28;20041;-63
2023/06/28 05:44:58;;;;;;;9.98;5.40;;;15.60;99.90;;;;;;5071874;28;20059;-64
2023/06/28 05:47:24;;;;;;;9.25;5.60;;;15.60;99.90;;;;;;5066314;28;20045;-64
2023/06/28 05:49:52;;;;;;;10.20;5.53;;;15.60;99.90;;;;;;5034765;28;20072;-64
2023/06/28 05:52:18;;;;;;;11.07;5.60;;;15.60;99.90;;;;;;5057834;28;20515;-63
2023/06/28 05:54:46;;;;;;;8.75;4.93;;;15.60;99.90;;;;;;5073125;28;20041;-64
2023/06/28 05:57:12;;;;;;;8.50;5.78;;;15.60;99.90;;;;;;5074574;28;20488;-64
2023/06/28 05:59:41;;;;;;;10.70;6.20;;;15.60;99.90;;;;;;5076999;28;20456;-64
2023/06/28 06:02:08;;;;;;;8.18;5.75;;;15.50;99.90;;;;;;5075231;28;20044;-64
2023/06/28 06:04:40;;;;;;;11.82;6.43;;;15.60;99.90;;;;;;5058064;28;20114;-63
2023/06/28 06:07:07;;;;;;;8.70;5.63;;;15.60;99.90;;;;;;5076541;28;20086;-64
2023/06/28 06:09:33;;;;;;;12.57;6.10;;;15.70;99.90;;;;;;5063596;28;20072;-65
2023/06/28 06:12:00;;;;;;;7.63;5.32;;;15.60;99.90;;;;;;5057854;28;20050;-64
2023/06/28 06:14:26;;;;;;;10.15;7.00;;;15.60;99.90;;;;;;5076288;28;20049;-65
2023/06/28 06:16:54;;;;;;;9.20;5.97;;;15.70;99.90;;;;;;5075841;28;20438;-65
2023/06/28 06:19:22;;;;;;;9.60;6.00;;;15.70;99.90;;;;;;5057794;28;20052;-65
2023/06/28 06:21:48;;;;;;;9.82;5.95;;;15.70;99.90;;;;;;5074148;28;20048;-65
2023/06/28 06:24:14;;;;;;;8.13;6.00;;;15.60;99.90;;;;;;5074724;28;20045;-65
2023/06/28 06:26:41;;;;;;;9.75;5.97;;;15.70;99.90;;;;;;5056911;28;20049;-65
2023/06/28 06:29:07;;;;;;;9.38;6.10;;;15.80;99.90;;;;;;5057148;28;20456;-63
2023/06/28 06:31:43;;;;;;;9.85;6.40;;;15.70;99.90;;;;;;5074703;28;20049;-65
2023/06/28 06:34:09;;;;;;;8.90;6.22;;;15.80;99.90;;;;;;5074693;28;20118;-66
2023/06/28 06:36:42;;;;;;;8.90;6.07;;;15.80;99.90;;;;;;5077361;28;20122;-65
2023/06/28 06:39:08;;;;;;;9.43;5.78;;;15.80;99.90;;;;;;5074875;28;20391;-65
2023/06/28 06:41:34;;;;;;;9.85;6.10;;;15.90;99.90;;;;;;5074862;28;20044;-65
2023/06/28 06:44:00;;;;;;;9.57;5.75;;;15.80;99.90;;;;;;5057260;28;20396;-66
2023/06/28 06:46:27;;;;;;;11.02;5.57;;;15.80;99.90;;;;;;5069823;28;20052;-66
2023/06/28 06:48:55;;;;;;;10.48;5.63;;;15.90;99.90;;;;;;5056168;28;20048;-65
2023/06/28 06:51:21;;;;;;;9.07;5.97;;;15.80;99.90;;;;;;5076215;28;20041;-65
2023/06/28 06:53:47;;;;;;;10.32;6.07;;;15.80;99.90;;;;;;5075816;28;20425;-65
2023/06/28 06:56:23;;;;;;;10.07;5.95;;;16.00;99.90;;;;;;5075449;28;20108;-66
2023/06/28 06:58:51;;;;;;;8.63;5.72;;;16.00;99.90;;;;;;5074416;28;20060;-65
2023/06/28 07:01:18;;;;;;;10.32;6.10;;;16.10;99.90;;;;;;5074863;28;20059;-65
2023/06/28 07:03:51;;;;;;;11.60;6.10;;;16.20;99.90;;;;;;5075017;28;20048;-65
2023/06/28 07:06:18;;;;;;;7.18;5.30;;;16.10;99.90;;;;;;5057330;28;20088;-65
2023/06/28 07:08:45;;;;;;;10.75;5.50;;;16.10;99.90;;;;;;5074018;28;20114;-65
2023/06/28 07:11:13;;;;;;;9.95;5.85;;;16.20;99.90;;;;;;5074332;28;20453;-64
2023/06/28 07:13:39;;;;;;;7.95;5.78;;;16.20;99.90;;;;;;5057503;28;20048;-65
2023/06/28 07:16:06;;;;;;;8.85;5.38;;;16.20;99.90;;;;;;5074768;28;20140;-64
2023/06/28 07:18:33;;;;;;;9.48;5.82;;;16.20;99.90;;;;;;5074753;28;20056;-64
2023/06/28 07:20:59;;;;;;;10.43;6.25;;;16.20;99.90;;;;;;5073970;28;20056;-65
2023/06/28 07:23:26;;;;;;;9.98;5.28;;;16.10;99.90;;;;;;5057295;28;20130;-65
2023/06/28 07:25:53;;;;;;;9.85;5.90;;;16.20;99.90;;;;;;5057291;28;20365;-64
2023/06/28 07:28:21;;;;;;;9.23;5.47;;;16.20;99.90;;;;;;5058583;28;20057;-65
2023/06/28 07:30:56;;;;;;;7.68;5.30;;;16.20;99.90;;;;;;5056984;28;20054;-65
2023/06/28 07:33:23;;;;;;;10.90;5.75;;;16.30;99.90;;;;;;5081590;28;20177;-64
2023/06/28 07:35:49;;;;;;;9.15;6.50;;;16.30;99.90;;;;;;5095664;28;20109;-65
2023/06/28 07:38:18;;;;;;;11.02;6.35;;;16.30;99.90;;;;;;5095305;28;20055;-63
2023/06/28 07:40:46;;;;;;;13.07;6.63;;;16.40;99.90;;;;;;5094486;28;20052;-65
2023/06/28 07:43:13;;;;;;;12.35;7.05;;;16.40;99.90;;;;;;5094679;28;20377;-65
2023/06/28 07:45:42;;;;;;;9.00;6.00;;;16.40;99.90;;;;;;5096556;28;20058;-65
2023/06/28 07:48:09;;;;;;;10.95;6.22;;;16.40;99.90;;;;;;5096039;28;20406;-65
2023/06/28 07:50:36;;;;;;;11.93;6.38;;;16.40;99.90;;;;;;5078571;28;20465;-65
2023/06/28 07:53:04;;;;;;;8.80;6.18;;;16.40;99.90;;;;;;5078292;28;20040;-65
2023/06/28 07:55:31;;;;;;;14.05;6.70;;;16.40;99.90;;;;;;5096192;28;20048;-65
2023/06/28 07:57:57;;;;;;;10.15;6.72;;;16.40;99.90;;;;;;5095868;28;20048;-65
2023/06/28 08:00:28;;;;;;;9.23;6.65;;;16.50;99.90;;;;;;5094962;28;20502;-66
2023/06/28 08:02:54;;;;;;;13.07;7.68;;;16.50;99.90;;;;;;5094302;28;20056;-65
2023/06/28 08:05:21;;;;;;;13.13;7.32;;;16.50;99.90;;;;;;5095730;28;20467;-65
2023/06/28 08:07:48;;;;;;;10.95;7.43;;;16.60;99.90;;;;;;5095566;28;20117;-65
2023/06/28 08:10:15;;;;;;;9.98;6.78;;;16.60;99.90;;;;;;5095623;28;20372;-65
2023/06/28 08:12:41;;;;;;;11.48;6.60;;;16.50;99.90;;;;;;5093860;28;20418;-65
2023/06/28 08:15:08;;;;;;;12.98;6.88;;;16.60;99.90;;;;;;5095020;28;20350;-65
2023/06/28 08:17:37;;;;;;;11.35;7.53;;;16.60;99.90;;;;;;5069046;28;20452;-65
2023/06/28 08:20:05;;;;;;;12.23;6.82;;;16.70;99.90;;;;;;5095093;28;20055;-65
2023/06/28 08:22:32;;;;;;;12.88;6.97;;;16.60;99.90;;;;;;5093868;28;20067;-65
2023/06/28 08:25:03;;;;;;;14.18;7.82;;;16.60;99.90;;;;;;5094870;28;20047;-65
2023/06/28 08:27:29;;;;;;;11.82;7.90;;;16.60;99.90;;;;;;5094551;28;20063;-65
2023/06/28 08:29:57;;;;;;;10.35;7.97;;;16.60;99.90;;;;;;5093823;28;20105;-65
2023/06/28 08:32:23;;;;;;;13.25;7.22;;;16.60;99.90;;;;;;5093271;28;20043;-65
2023/06/28 08:34:49;;;;;;;13.32;7.72;;;16.60;99.90;;;;;;5093809;28;20449;-65
2023/06/28 08:37:16;;;;;;;12.82;8.07;;;16.60;99.90;;;;;;5094025;28;20532;-65
2023/06/28 08:39:43;;;;;;;11.75;8.02;;;16.70;99.90;;;;;;5093238;28;20044;-65
2023/06/28 08:42:09;;;;;;;13.10;8.50;;;16.70;99.90;;;;;;5093611;28;20048;-65
2023/06/28 08:44:38;;;;;;;16.00;8.02;;;16.70;99.90;;;;;;5093665;28;20414;-65
2023/06/28 08:47:06;;;;;;;9.85;7.97;;;16.70;99.90;;;;;;5094202;28;20056;-65
2023/06/28 08:49:32;;;;;;;11.48;7.97;;;16.70;99.90;;;;;;5089114;28;20075;-64
2023/06/28 08:51:59;;;;;;;13.15;8.32;;;16.70;99.90;;;;;;5083246;28;20044;-66
2023/06/28 08:54:28;;;;;;;12.95;8.52;;;16.70;99.90;;;;;;5094105;28;20059;-65
2023/06/28 08:56:58;;;;;;;12.77;8.23;;;16.80;99.90;;;;;;5090892;28;20420;-66
2023/06/28 08:59:26;;;;;;;15.77;8.68;;;16.90;99.90;;;;;;5094286;28;20526;-66
2023/06/28 09:01:55;;;;;;;14.30;8.85;;;16.90;99.90;;;;;;5093299;28;20071;-64
2023/06/28 09:04:23;;;;;;;14.23;8.63;;;16.80;99.90;;;;;;5074108;28;20048;-67
2023/06/28 09:06:51;;;;;;;16.33;8.15;;;16.80;99.90;;;;;;5073740;28;20429;-63
2023/06/28 09:09:18;;;;;;;14.48;8.73;;;16.70;99.90;;;;;;5073371;28;20381;-63
2023/06/28 09:11:45;;;;;;;11.65;8.55;;;16.70;99.90;;;;;;5073591;28;20531;-64
2023/06/28 09:14:12;;;;;;;15.65;10.00;;;16.70;99.90;;;;;;5093578;28;20375;-63
2023/06/28 09:16:39;;;;;;;12.15;9.30;;;16.70;99.90;;;;;;5094334;28;20055;-64
2023/06/28 09:19:05;;;;;;;16.27;11.10;;;16.90;99.90;;;;;;5093500;28;20480;-64
2023/06/28 09:21:33;;;;;;;14.52;9.40;;;17.00;99.90;;;;;;5094122;28;20063;-64
2023/06/28 09:24:00;;;;;;;14.10;9.73;;;17.10;99.90;;;;;;5091452;28;20051;-63
2023/06/28 09:26:31;;;;;;;14.73;10.38;;;17.10;99.90;;;;;;5093875;28;20052;-64
2023/06/28 09:29:15;;;;;;;16.38;10.68;;;17.30;99.90;;;;;;5094628;28;20048;-63
2023/06/28 09:31:45;;;;;;;14.95;9.98;;;17.40;99.90;;;;;;5094310;28;20044;-65
2023/06/28 09:34:21;;;;;;;15.27;11.05;;;17.50;99.90;;;;;;5091679;28;20055;-64
2023/06/28 09:36:55;;;;;;;16.42;10.95;;;17.50;99.90;;;;;;5075348;28;20044;-64
2023/06/28 09:39:23;;;;;;;13.38;9.85;;;17.50;99.90;;;;;;5094551;28;20455;-63
2023/06/28 09:41:50;;;;;;;12.38;10.10;;;17.60;99.90;;;;;;5094295;28;20350;-64
2023/06/28 09:44:30;;;;;;;15.25;10.45;;;17.60;99.90;;;;;;5091536;28;20090;-64
2023/06/28 09:47:04;;;;;;;12.85;11.18;;;17.50;99.90;;;;;;5094035;28;20135;-65
2023/06/28 09:49:31;;;;;;;12.77;9.90;;;17.50;99.90;;;;;;5093848;28;20047;-65
2023/06/28 09:52:00;;;;;;;12.15;9.52;;;17.40;99.90;;;;;;5094075;28;20047;-64
2023/06/28 09:54:45;;;;;;;13.77;11.57;;;17.60;99.90;;;;;;5093864;28;20059;-64
2023/06/28 09:57:12;;;;;;;14.48;10.48;;;17.60;99.90;;;;;;5093241;28;20093;-65
2023/06/28 09:59:39;;;;;;;11.70;10.02;;;17.40;99.90;;;;;;5093316;28;20051;-64
2023/06/28 10:02:08;;;;;;;15.18;10.90;;;17.50;99.90;;;;;;5093027;28;20055;-64
2023/06/28 10:04:35;;;;;;;13.32;10.02;;;17.50;99.90;;;;;;5093169;28;20052;-65
2023/06/28 10:07:03;;;;;;;16.33;12.30;;;17.50;99.90;;;;;;5094786;28;20048;-65
2023/06/28 10:09:37;;;;;;;14.80;11.38;;;17.50;99.90;;;;;;5092573;28;20044;-64
2023/06/28 10:12:11;;;;;;;13.48;11.48;;;17.60;99.90;;;;;;5094586;28;20044;-65
2023/06/28 10:14:44;;;;;;;13.60;12.13;;;17.60;99.90;;;;;;5094426;28;20055;-64
2023/06/28 10:17:12;;;;;;;13.48;11.63;;;17.50;99.90;;;;;;5094643;28;20058;-64
2023/06/28 10:19:38;;;;;;;15.13;11.93;;;17.60;99.90;;;;;;5076592;28;20044;-64
2023/06/28 10:22:05;;;;;;;14.60;13.05;;;17.60;99.90;;;;;;5093447;28;20044;-64
2023/06/28 10:24:36;;;;;;;14.27;12.20;;;17.60;99.90;;;;;;5094390;28;20125;-64
2023/06/28 10:27:04;;;;;;;14.15;12.23;;;17.70;99.90;;;;;;5094244;28;20452;-64
2023/06/28 10:29:32;;;;;;;13.77;12.23;;;17.70;99.90;;;;;;5094402;28;20051;-65
2023/06/28 10:32:03;;;;;;;15.15;13.55;;;17.70;99.90;;;;;;5093389;28;20066;-64
2023/06/28 10:34:33;;;;;;;15.40;13.77;;;17.70;99.90;;;;;;5092311;28;20062;-65
2023/06/28 10:37:00;;;;;;;15.40;12.75;;;17.70;99.90;;;;;;5093887;28;20058;-64
2023/06/28 10:39:26;;;;;;;16.52;13.73;;;17.70;99.90;;;;;;5094077;28;20361;-65
2023/06/28 10:41:56;;;;;;;16.73;14.13;;;17.70;99.90;;;;;;5059146;28;20048;-65
2023/06/28 10:44:23;;;;;;;16.52;14.70;;;17.80;99.90;;;;;;5095404;28;20359;-64
2023/06/28 10:47:09;;;;;;;19.60;14.63;;;17.70;99.90;;;;;;5098262;28;20464;-64
2023/06/28 10:49:36;;;;;;;17.15;14.30;;;17.70;99.90;;;;;;5097404;28;20052;-64
2023/06/28 10:52:02;;;;;;;18.77;13.90;;;17.70;99.90;;;;;;5095754;28;20066;-64
2023/06/28 10:54:28;;;;;;;17.70;15.40;;;17.70;99.90;;;;;;5077330;28;20049;-64
2023/06/28 10:56:58;;;;;;;19.92;15.82;;;17.60;99.90;;;;;;5097660;28;20044;-64
2023/06/28 10:59:26;;;;;;;18.58;16.20;;;17.70;99.90;;;;;;5097556;28;20055;-66
2023/06/28 11:01:56;;;;;;;18.75;15.93;;;17.70;99.90;;;;;;5095939;28;20056;-64
2023/06/28 11:04:27;;;;;;;21.40;17.02;;;17.70;99.90;;;;;;5043563;28;20071;-64
2023/06/28 11:07:04;;;;;;;21.92;17.40;;;17.60;99.90;;;;;;5059749;28;20362;-64
2023/06/28 11:09:31;;;;;;;20.00;16.85;;;17.70;99.90;;;;;;5059521;28;20079;-64
2023/06/28 11:11:59;;;;;;;24.08;17.27;;;17.80;99.90;;;;;;5076694;28;20049;-64
2023/06/28 11:14:34;;;;;;;21.13;16.40;;;18.00;99.90;;;;;;5078598;28;20086;-64
2023/06/28 11:17:06;;;;;;;21.05;16.90;;;18.00;99.90;;;;;;5097331;28;20082;-64
2023/06/28 11:19:33;;;;;;;21.15;17.17;;;18.20;99.90;;;;;;5097049;28;20105;-64
2023/06/28 11:22:01;;;;;;;22.75;17.23;;;18.30;99.90;;;;;;5096963;28;20048;-65
2023/06/28 11:24:36;;;;;;;21.65;17.15;;;18.40;99.90;;;;;;5096969;28;20056;-64
2023/06/28 11:27:19;;;;;;;20.15;17.23;;;18.40;99.90;;;;;;5097133;28;20070;-64
2023/06/28 11:29:53;;;;;;;21.45;15.88;;;18.60;99.90;;;;;;5079709;28;20048;-64
2023/06/28 11:32:25;;;;;;;20.65;16.33;;;18.70;99.90;;;;;;5079306;28;20059;-64
2023/06/28 11:34:56;;;;;;;19.05;15.40;;;18.80;99.90;;;;;;5078636;28;20078;-64
2023/06/28 11:37:23;;;;;;;24.65;14.80;;;18.70;99.90;;;;;;5079864;28;20460;-65
2023/06/28 11:39:51;;;;;;;24.30;17.08;;;18.80;99.90;;;;;;5079427;28;20048;-65
2023/06/28 11:42:18;;;;;;;21.10;16.02;;;18.90;99.90;;;;;;5094436;28;20052;-65
2023/06/28 11:44:48;;;;;;;23.70;16.25;;;18.80;99.90;;;;;;5097246;28;20105;-65
2023/06/28 11:47:21;;;;;;;22.38;16.80;;;18.70;99.90;;;;;;5079118;28;20044;-64
2023/06/28 11:49:48;;;;;;;21.33;16.63;;;18.60;99.90;;;;;;5079667;28;20040;-65
2023/06/28 11:52:22;;;;;;;23.45;16.80;;;18.70;99.90;;;;;;5096745;28;20059;-65
2023/06/28 11:54:48;;;;;;;24.58;16.42;;;18.80;99.90;;;;;;5095962;28;20351;-65
2023/06/28 11:57:17;;;;;;;20.85;16.15;;;18.80;99.90;;;;;;5095040;28;20052;-64
2023/06/28 11:59:51;;;;;;;21.30;15.90;;;18.80;99.90;;;;;;5095931;28;20499;-65
2023/06/28 12:02:17;;;;;;;20.70;16.42;;;18.80;99.90;;;;;;5061937;28;20048;-64
2023/06/28 12:04:58;;;;;;;19.33;15.95;;;18.90;99.90;;;;;;5077994;28;20067;-65
2023/06/28 12:07:24;;;;;;;19.90;14.52;;;18.90;99.90;;;;;;5096106;28;20349;-64
2023/06/28 12:09:57;;;;;;;21.83;16.33;;;18.90;99.90;;;;;;5095595;28;20048;-65
2023/06/28 12:12:34;;;;;;;22.73;15.63;;;19.10;99.90;;;;;;5062696;28;20050;-64
2023/06/28 12:15:02;;;;;;;24.23;16.30;;;19.20;99.90;;;;;;5095891;28;20109;-64
2023/06/28 12:17:37;;;;;;;22.73;16.98;;;19.10;99.90;;;;;;5096089;28;20055;-64
2023/06/28 12:20:08;;;;;;;20.27;15.38;;;19.20;99.90;;;;;;5077984;28;20048;-64
2023/06/28 12:22:39;;;;;;;19.83;16.65;;;19.20;99.90;;;;;;5078416;28;20048;-64
2023/06/28 12:25:10;;;;;;;22.10;16.08;;;19.20;99.90;;;;;;5062540;28;20082;-64
2023/06/28 12:27:38;;;;;;;21.38;15.60;;;19.20;99.90;;;;;;5096625;28;20090;-64
2023/06/28 12:30:14;;;;;;;23.85;16.60;;;19.20;99.90;;;;;;5077889;28;20059;-64
2023/06/28 12:32:44;;;;;;;19.55;14.82;;;19.40;99.90;;;;;;5095711;28;20407;-64
2023/06/28 12:35:30;;;;;;;21.75;16.35;;;19.40;99.90;;;;;;5094941;28;20123;-64
2023/06/28 12:37:57;;;;;;;20.25;14.75;;;19.30;99.90;;;;;;5095692;28;20048;-64
2023/06/28 12:40:32;;;;;;;26.63;16.33;;;19.50;99.90;;;;;;5095749;28;20112;-65
2023/06/28 12:43:17;;;;;;;20.42;15.07;;;19.40;99.90;;;;;;5095426;28;20385;-65
2023/06/28 12:45:46;;;;;;;21.02;14.88;;;19.50;99.90;;;;;;5078101;28;20109;-64